TimeEDT,TemperatureF,Dew PointF,Humidity,Sea Level PressureIn,VisibilityMPH,Wind Direction,Wind SpeedMPH,Gust SpeedMPH,PrecipitationIn,Events,Conditions,WindDirDegrees,DateUTC
12:53 AM,73.9,64.9,73,29.84,10.0,Calm,Calm,-,N/A,,Clear,0,2013-09-13 04:53:00
1:53 AM,72.0,69.1,91,29.83,10.0,WNW,4.6,-,N/A,,Clear,300,2013-09-13 05:53:00
2:53 AM,71.1,68.0,90,29.81,10.0,North,3.5,-,N/A,,Clear,360,2013-09-13 06:53:00
3:53 AM,69.1,66.9,93,29.81,10.0,Calm,Calm,-,N/A,,Clear,0,2013-09-13 07:53:00
4:53 AM,68.0,64.9,90,29.81,10.0,Calm,Calm,-,N/A,,Clear,0,2013-09-13 08:53:00
5:53 AM,68.0,64.0,87,29.81,10.0,North,3.5,-,N/A,,Clear,10,2013-09-13 09:53:00
6:53 AM,70.0,63.0,78,29.83,10.0,NNW,5.8,-,N/A,,Clear,340,2013-09-13 10:53:00
7:53 AM,70.0,63.0,78,29.85,10.0,NNW,4.6,-,N/A,,Clear,330,2013-09-13 11:53:00
8:53 AM,73.9,63.0,68,29.84,10.0,NNW,8.1,-,N/A,,Clear,340,2013-09-13 12:53:00
9:53 AM,75.9,62.1,62,29.84,10.0,North,6.9,-,N/A,,Clear,350,2013-09-13 13:53:00
10:53 AM,80.1,62.1,54,29.84,10.0,North,9.2,-,N/A,,Clear,360,2013-09-13 14:53:00
11:53 AM,82.0,59.0,45,29.84,9.0,North,9.2,-,N/A,,Clear,360,2013-09-13 15:53:00
12:53 PM,82.0,57.9,44,29.83,10.0,Variable,4.6,-,N/A,,Clear,0,2013-09-13 16:53:00
1:53 PM,82.9,57.9,42,29.81,10.0,North,8.1,-,N/A,,Clear,10,2013-09-13 17:53:00
2:53 PM,86.0,57.9,38,29.79,10.0,NNW,4.6,-,N/A,,Partly Cloudy,330,2013-09-13 18:53:00
3:53 PM,86.0,57.0,37,29.78,10.0,NNE,4.6,-,N/A,,Partly Cloudy,30,2013-09-13 19:53:00
4:53 PM,84.0,57.0,40,29.78,10.0,NNE,10.4,-,N/A,,Scattered Clouds,30,2013-09-13 20:53:00
5:53 PM,80.1,57.0,45,29.78,10.0,NNE,9.2,-,N/A,,Mostly Cloudy,20,2013-09-13 21:53:00
6:53 PM,78.1,55.0,45,29.80,10.0,North,9.2,-,N/A,,Clear,360,2013-09-13 22:53:00
7:53 PM,75.0,53.1,46,29.82,10.0,North,8.1,-,N/A,,Mostly Cloudy,10,2013-09-13 23:53:00
8:53 PM,73.0,50.0,44,29.84,10.0,North,9.2,18.4,N/A,,Overcast,360,2013-09-14 00:53:00
9:53 PM,70.0,51.1,51,29.86,10.0,NE,5.8,-,N/A,,Scattered Clouds,40,2013-09-14 01:53:00
10:53 PM,68.0,53.1,59,29.88,10.0,North,-9999.0,-,N/A,,Partly Cloudy,0,2013-09-14 02:53:00
11:53 PM,66.0,52.0,60,29.88,10.0,North,6.9,-,N/A,,Partly Cloudy,10,2013-09-14 03:53:00